sensor_id;sensor_type;location;lat;lon;timestamp;temperature;humidity
52107;DHT22;38105;52.968;5.974;2023-04-09T00:01:25;9.00;99.90
52107;DHT22;38105;52.968;5.974;2023-04-09T00:03:51;9.10;99.90
52107;DHT22;38105;52.968;5.974;2023-04-09T00:06:16;9.10;99.90
52107;DHT22;38105;52.968;5.974;2023-04-09T00:08:42;9.10;99.90
52107;DHT22;38105;52.968;5.974;2023-04-09T00:11:08;9.20;99.90
52107;DHT22;38105;52.968;5.974;2023-04-09T00:13:33;9.10;99.90
52107;DHT22;38105;52.968;5.974;2023-04-09T00:15:59;9.20;99.90
52107;DHT22;38105;52.968;5.974;2023-04-09T00:18:25;9.10;99.90
52107;DHT22;38105;52.968;5.974;2023-04-09T00:20:51;9.10;99.90
52107;DHT22;38105;52.968;5.974;2023-04-09T00:23:16;9.10;99.90
52107;DHT22;38105;52.968;5.974;2023-04-09T00:25:42;9.10;99.90
52107;DHT22;38105;52.968;5.974;2023-04-09T00:28:07;9.20;99.90
52107;DHT22;38105;52.968;5.974;2023-04-09T00:30:33;9.20;99.90
52107;DHT22;38105;52.968;5.974;2023-04-09T00:32:59;9.10;99.90
52107;DHT22;38105;52.968;5.974;2023-04-09T00:35:24;9.10;99.90
52107;DHT22;38105;52.968;5.974;2023-04-09T00:37:50;9.00;99.90
52107;DHT22;38105;52.968;5.974;2023-04-09T00:40:16;9.10;99.90
52107;DHT22;38105;52.968;5.974;2023-04-09T00:42:41;9.00;99.90
52107;DHT22;38105;52.968;5.974;2023-04-09T00:45:07;9.00;99.90
52107;DHT22;38105;52.968;5.974;2023-04-09T00:47:34;8.90;99.90
52107;DHT22;38105;52.968;5.974;2023-04-09T00:50:00;9.00;99.90
52107;DHT22;38105;52.968;5.974;2023-04-09T00:52:26;8.90;99.90
52107;DHT22;38105;52.968;5.974;2023-04-09T00:54:55;8.90;99.90
52107;DHT22;38105;52.968;5.974;2023-04-09T00:57:21;8.90;99.90
52107;DHT22;38105;52.968;5.974;2023-04-09T00:59:46;8.80;99.90
52107;DHT22;38105;52.968;5.974;2023-04-09T01:02:12;8.80;99.90
52107;DHT22;38105;52.968;5.974;2023-04-09T01:04:40;8.80;99.90
52107;DHT22;38105;52.968;5.974;2023-04-09T01:10:16;8.70;99.90
52107;DHT22;38105;52.968;5.974;2023-04-09T01:13:07;8.80;99.90
52107;DHT22;38105;52.968;5.974;2023-04-09T01:15:56;8.70;99.90
52107;DHT22;38105;52.968;5.974;2023-04-09T01:18:35;8.70;99.90
52107;DHT22;38105;52.968;5.974;2023-04-09T01:21:09;8.60;99.90
52107;DHT22;38105;52.968;5.974;2023-04-09T01:29:19;8.60;99.90
52107;DHT22;38105;52.968;5.974;2023-04-09T01:31:45;8.50;99.90
52107;DHT22;38105;52.968;5.974;2023-04-09T01:34:13;8.70;99.90
52107;DHT22;38105;52.968;5.974;2023-04-09T01:36:40;8.50;99.90
52107;DHT22;38105;52.968;5.974;2023-04-09T01:39:07;8.50;99.90
52107;DHT22;38105;52.968;5.974;2023-04-09T01:41:34;8.50;99.90
52107;DHT22;38105;52.968;5.974;2023-04-09T01:44:02;8.60;99.90
52107;DHT22;38105;52.968;5.974;2023-04-09T01:46:29;8.50;99.90
52107;DHT22;38105;52.968;5.974;2023-04-09T01:48:55;8.50;99.90
52107;DHT22;38105;52.968;5.974;2023-04-09T01:51:21;8.40;99.90
52107;DHT22;38105;52.968;5.974;2023-04-09T01:53:48;8.40;99.90
52107;DHT22;38105;52.968;5.974;2023-04-09T01:56:14;8.30;99.90
52107;DHT22;38105;52.968;5.974;2023-04-09T01:58:40;8.50;99.90
52107;DHT22;38105;52.968;5.974;2023-04-09T02:01:13;8.30;99.90
52107;DHT22;38105;52.968;5.974;2023-04-09T02:03:47;8.30;99.90
52107;DHT22;38105;52.968;5.974;2023-04-09T02:08:54;8.20;99.90
52107;DHT22;38105;52.968;5.974;2023-04-09T02:11:23;8.30;99.90
52107;DHT22;38105;52.968;5.974;2023-04-09T02:13:52;8.40;99.90
52107;DHT22;38105;52.968;5.974;2023-04-09T02:16:19;8.30;99.90
52107;DHT22;38105;52.968;5.974;2023-04-09T02:18:46;8.20;99.90
52107;DHT22;38105;52.968;5.974;2023-04-09T02:21:11;8.10;99.90
52107;DHT22;38105;52.968;5.974;2023-04-09T02:23:38;8.20;99.90
52107;DHT22;38105;52.968;5.974;2023-04-09T02:26:03;8.20;99.90
52107;DHT22;38105;52.968;5.974;2023-04-09T02:28:29;8.10;99.90
52107;DHT22;38105;52.968;5.974;2023-04-09T02:30:55;8.20;99.90
52107;DHT22;38105;52.968;5.974;2023-04-09T02:33:20;8.10;99.90
52107;DHT22;38105;52.968;5.974;2023-04-09T02:35:46;8.20;99.90
52107;DHT22;38105;52.968;5.974;2023-04-09T02:38:12;8.10;99.90
52107;DHT22;38105;52.968;5.974;2023-04-09T02:40:39;8.00;99.90
52107;DHT22;38105;52.968;5.974;2023-04-09T02:43:05;8.00;99.90
52107;DHT22;38105;52.968;5.974;2023-04-09T02:45:31;7.90;99.90
52107;DHT22;38105;52.968;5.974;2023-04-09T02:47:57;8.10;99.90
52107;DHT22;38105;52.968;5.974;2023-04-09T02:50:22;8.10;99.90
52107;DHT22;38105;52.968;5.974;2023-04-09T02:52:48;8.10;99.90
52107;DHT22;38105;52.968;5.974;2023-04-09T02:55:14;7.90;99.90
52107;DHT22;38105;52.968;5.974;2023-04-09T02:57:40;8.00;99.90
52107;DHT22;38105;52.968;5.974;2023-04-09T03:00:06;8.10;99.90
52107;DHT22;38105;52.968;5.974;2023-04-09T03:02:32;7.90;99.90
52107;DHT22;38105;52.968;5.974;2023-04-09T03:04:57;7.90;99.90
52107;DHT22;38105;52.968;5.974;2023-04-09T03:07:23;8.00;99.90
52107;DHT22;38105;52.968;5.974;2023-04-09T03:09:49;8.10;99.90
52107;DHT22;38105;52.968;5.974;2023-04-09T03:12:14;8.10;99.90
52107;DHT22;38105;52.968;5.974;2023-04-09T03:14:40;8.00;99.90
52107;DHT22;38105;52.968;5.974;2023-04-09T03:17:05;8.10;99.90
52107;DHT22;38105;52.968;5.974;2023-04-09T03:19:31;8.00;99.90
52107;DHT22;38105;52.968;5.974;2023-04-09T03:21:56;7.90;99.90
52107;DHT22;38105;52.968;5.974;2023-04-09T03:24:22;8.00;99.90
52107;DHT22;38105;52.968;5.974;2023-04-09T03:26:48;7.80;99.90
52107;DHT22;38105;52.968;5.974;2023-04-09T03:29:14;8.00;99.90
52107;DHT22;38105;52.968;5.974;2023-04-09T03:31:39;7.90;99.90
52107;DHT22;38105;52.968;5.974;2023-04-09T03:34:05;8.00;99.90
52107;DHT22;38105;52.968;5.974;2023-04-09T03:36:30;7.80;99.90
52107;DHT22;38105;52.968;5.974;2023-04-09T03:38:57;8.00;99.90
52107;DHT22;38105;52.968;5.974;2023-04-09T03:41:22;7.90;99.90
52107;DHT22;38105;52.968;5.974;2023-04-09T03:43:48;7.90;99.90
52107;DHT22;38105;52.968;5.974;2023-04-09T03:46:15;7.70;99.90
52107;DHT22;38105;52.968;5.974;2023-04-09T03:48:41;7.80;99.90
52107;DHT22;38105;52.968;5.974;2023-04-09T03:51:11;7.70;99.90
52107;DHT22;38105;52.968;5.974;2023-04-09T03:53:37;7.80;99.90
52107;DHT22;38105;52.968;5.974;2023-04-09T03:56:03;7.80;99.90
52107;DHT22;38105;52.968;5.974;2023-04-09T03:58:28;7.80;99.90
52107;DHT22;38105;52.968;5.974;2023-04-09T04:00:54;7.90;99.90
52107;DHT22;38105;52.968;5.974;2023-04-09T04:03:20;7.90;99.90
52107;DHT22;38105;52.968;5.974;2023-04-09T04:05:45;7.90;99.90
52107;DHT22;38105;52.968;5.974;2023-04-09T04:08:11;7.70;99.90
52107;DHT22;38105;52.968;5.974;2023-04-09T04:10:37;7.80;99.90
52107;DHT22;38105;52.968;5.974;2023-04-09T04:13:02;7.70;99.90
52107;DHT22;38105;52.968;5.974;2023-04-09T04:15:28;7.80;99.90
52107;DHT22;38105;52.968;5.974;2023-04-09T04:17:54;7.90;99.90
52107;DHT22;38105;52.968;5.974;2023-04-09T04:20:20;7.80;99.90
52107;DHT22;38105;52.968;5.974;2023-04-09T04:22:45;7.80;99.90
52107;DHT22;38105;52.968;5.974;2023-04-09T04:25:11;7.70;99.90
52107;DHT22;38105;52.968;5.974;2023-04-09T04:27:40;7.90;99.90
52107;DHT22;38105;52.968;5.974;2023-04-09T04:30:06;7.70;99.90
52107;DHT22;38105;52.968;5.974;2023-04-09T04:32:32;7.70;99.90
52107;DHT22;38105;52.968;5.974;2023-04-09T04:34:57;7.80;99.90
52107;DHT22;38105;52.968;5.974;2023-04-09T04:37:23;7.70;99.90
52107;DHT22;38105;52.968;5.974;2023-04-09T04:39:49;7.90;99.90
52107;DHT22;38105;52.968;5.974;2023-04-09T04:42:14;7.70;99.90
52107;DHT22;38105;52.968;5.974;2023-04-09T04:44:41;7.90;99.90
52107;DHT22;38105;52.968;5.974;2023-04-09T04:47:07;7.80;99.90
52107;DHT22;38105;52.968;5.974;2023-04-09T04:49:32;7.80;99.90
52107;DHT22;38105;52.968;5.974;2023-04-09T04:51:58;7.80;99.90
52107;DHT22;38105;52.968;5.974;2023-04-09T04:54:24;7.80;99.90
52107;DHT22;38105;52.968;5.974;2023-04-09T04:56:49;7.80;99.90
52107;DHT22;38105;52.968;5.974;2023-04-09T04:59:15;7.80;99.90
52107;DHT22;38105;52.968;5.974;2023-04-09T05:01:41;7.90;99.90
52107;DHT22;38105;52.968;5.974;2023-04-09T05:04:06;7.70;99.90
52107;DHT22;38105;52.968;5.974;2023-04-09T05:06:32;7.70;99.90
52107;DHT22;38105;52.968;5.974;2023-04-09T05:08:58;7.80;99.90
52107;DHT22;38105;52.968;5.974;2023-04-09T05:11:24;7.90;99.90
52107;DHT22;38105;52.968;5.974;2023-04-09T05:13:49;7.70;99.90
52107;DHT22;38105;52.968;5.974;2023-04-09T05:16:19;7.90;99.90
52107;DHT22;38105;52.968;5.974;2023-04-09T05:18:45;7.90;99.90
52107;DHT22;38105;52.968;5.974;2023-04-09T05:21:11;7.70;99.90
52107;DHT22;38105;52.968;5.974;2023-04-09T05:23:37;7.80;99.90
52107;DHT22;38105;52.968;5.974;2023-04-09T05:26:03;7.70;99.90
52107;DHT22;38105;52.968;5.974;2023-04-09T05:28:29;7.70;99.90
52107;DHT22;38105;52.968;5.974;2023-04-09T05:30:55;7.60;99.90
52107;DHT22;38105;52.968;5.974;2023-04-09T05:33:20;7.70;99.90
52107;DHT22;38105;52.968;5.974;2023-04-09T05:35:46;7.70;99.90
52107;DHT22;38105;52.968;5.974;2023-04-09T05:38:12;7.70;99.90
52107;DHT22;38105;52.968;5.974;2023-04-09T05:40:40;7.60;99.90
52107;DHT22;38105;52.968;5.974;2023-04-09T05:43:06;7.80;99.90
52107;DHT22;38105;52.968;5.974;2023-04-09T05:45:32;7.90;99.90
52107;DHT22;38105;52.968;5.974;2023-04-09T05:47:57;7.80;99.90
52107;DHT22;38105;52.968;5.974;2023-04-09T05:50:23;7.70;99.90
52107;DHT22;38105;52.968;5.974;2023-04-09T05:52:49;7.80;99.90
52107;DHT22;38105;52.968;5.974;2023-04-09T05:55:14;7.90;99.90
52107;DHT22;38105;52.968;5.974;2023-04-09T05:57:40;7.70;99.90
52107;DHT22;38105;52.968;5.974;2023-04-09T06:00:06;7.90;99.90
52107;DHT22;38105;52.968;5.974;2023-04-09T06:02:32;7.70;99.90
52107;DHT22;38105;52.968;5.974;2023-04-09T06:04:58;7.70;99.90
52107;DHT22;38105;52.968;5.974;2023-04-09T06:07:24;7.80;99.90
52107;DHT22;38105;52.968;5.974;2023-04-09T06:09:49;7.80;99.90
52107;DHT22;38105;52.968;5.974;2023-04-09T06:12:15;7.70;99.90
52107;DHT22;38105;52.968;5.974;2023-04-09T06:14:41;7.80;99.90
52107;DHT22;38105;52.968;5.974;2023-04-09T06:17:06;7.70;99.90
52107;DHT22;38105;52.968;5.974;2023-04-09T06:19:32;7.70;99.90
52107;DHT22;38105;52.968;5.974;2023-04-09T06:21:58;7.80;99.90
52107;DHT22;38105;52.968;5.974;2023-04-09T06:24:23;7.90;99.90
52107;DHT22;38105;52.968;5.974;2023-04-09T06:26:49;7.80;99.90
52107;DHT22;38105;52.968;5.974;2023-04-09T06:29:15;7.80;99.90
52107;DHT22;38105;52.968;5.974;2023-04-09T06:31:40;7.80;99.90
52107;DHT22;38105;52.968;5.974;2023-04-09T06:34:06;7.80;99.90
52107;DHT22;38105;52.968;5.974;2023-04-09T06:36:32;7.70;99.90
52107;DHT22;38105;52.968;5.974;2023-04-09T06:38:58;7.80;99.90
52107;DHT22;38105;52.968;5.974;2023-04-09T06:41:24;7.80;99.90
52107;DHT22;38105;52.968;5.974;2023-04-09T06:43:51;7.60;99.90
52107;DHT22;38105;52.968;5.974;2023-04-09T06:46:17;7.60;99.90
52107;DHT22;38105;52.968;5.974;2023-04-09T06:48:45;7.70;99.90
52107;DHT22;38105;52.968;5.974;2023-04-09T06:51:11;7.70;99.90
52107;DHT22;38105;52.968;5.974;2023-04-09T06:53:37;7.60;99.90
52107;DHT22;38105;52.968;5.974;2023-04-09T06:56:03;7.70;99.90
52107;DHT22;38105;52.968;5.974;2023-04-09T06:58:29;7.70;99.90
52107;DHT22;38105;52.968;5.974;2023-04-09T07:00:55;7.70;99.90
52107;DHT22;38105;52.968;5.974;2023-04-09T07:03:21;7.70;99.90
52107;DHT22;38105;52.968;5.974;2023-04-09T07:05:46;7.70;99.90
52107;DHT22;38105;52.968;5.974;2023-04-09T07:08:13;7.70;99.90
52107;DHT22;38105;52.968;5.974;2023-04-09T07:10:38;7.60;99.90
52107;DHT22;38105;52.968;5.974;2023-04-09T07:13:04;7.70;99.90
52107;DHT22;38105;52.968;5.974;2023-04-09T07:15:30;7.70;99.90
52107;DHT22;38105;52.968;5.974;2023-04-09T07:17:55;7.70;99.90
52107;DHT22;38105;52.968;5.974;2023-04-09T07:20:22;7.80;99.90
52107;DHT22;38105;52.968;5.974;2023-04-09T07:22:48;7.70;99.90
52107;DHT22;38105;52.968;5.974;2023-04-09T07:25:14;7.80;99.90
52107;DHT22;38105;52.968;5.974;2023-04-09T07:27:40;7.80;99.90
52107;DHT22;38105;52.968;5.974;2023-04-09T07:30:07;7.70;99.90
52107;DHT22;38105;52.968;5.974;2023-04-09T07:32:35;7.70;99.90
52107;DHT22;38105;52.968;5.974;2023-04-09T07:35:02;7.80;99.90
52107;DHT22;38105;52.968;5.974;2023-04-09T07:37:29;7.80;99.90
52107;DHT22;38105;52.968;5.974;2023-04-09T07:39:55;7.90;99.90
52107;DHT22;38105;52.968;5.974;2023-04-09T07:42:21;7.80;99.90
52107;DHT22;38105;52.968;5.974;2023-04-09T07:44:47;8.00;99.90
52107;DHT22;38105;52.968;5.974;2023-04-09T07:47:13;7.90;99.90
52107;DHT22;38105;52.968;5.974;2023-04-09T07:49:38;8.00;99.90
52107;DHT22;38105;52.968;5.974;2023-04-09T07:52:04;8.00;99.90
52107;DHT22;38105;52.968;5.974;2023-04-09T07:54:31;8.00;99.90
52107;DHT22;38105;52.968;5.974;2023-04-09T07:56:57;8.10;99.90
52107;DHT22;38105;52.968;5.974;2023-04-09T07:59:23;8.10;99.90
52107;DHT22;38105;52.968;5.974;2023-04-09T08:01:49;8.00;99.90
52107;DHT22;38105;52.968;5.974;2023-04-09T08:04:14;8.20;99.90
52107;DHT22;38105;52.968;5.974;2023-04-09T08:06:40;8.10;99.90
52107;DHT22;38105;52.968;5.974;2023-04-09T08:09:06;8.10;99.90
52107;DHT22;38105;52.968;5.974;2023-04-09T08:11:32;8.20;99.90
52107;DHT22;38105;52.968;5.974;2023-04-09T08:13:58;8.30;99.90
52107;DHT22;38105;52.968;5.974;2023-04-09T08:16:27;8.30;99.90
52107;DHT22;38105;52.968;5.974;2023-04-09T08:18:55;8.30;99.90
52107;DHT22;38105;52.968;5.974;2023-04-09T08:21:22;8.40;99.90
52107;DHT22;38105;52.968;5.974;2023-04-09T08:23:48;8.30;99.90
52107;DHT22;38105;52.968;5.974;2023-04-09T08:26:14;8.40;99.90
52107;DHT22;38105;52.968;5.974;2023-04-09T08:28:39;8.40;99.90
52107;DHT22;38105;52.968;5.974;2023-04-09T08:31:08;8.40;99.90
52107;DHT22;38105;52.968;5.974;2023-04-09T08:33:33;8.40;99.90
52107;DHT22;38105;52.968;5.974;2023-04-09T08:35:59;8.50;99.90
52107;DHT22;38105;52.968;5.974;2023-04-09T08:38:25;8.50;99.90
52107;DHT22;38105;52.968;5.974;2023-04-09T08:40:51;8.50;99.90
52107;DHT22;38105;52.968;5.974;2023-04-09T08:43:18;8.70;99.90
52107;DHT22;38105;52.968;5.974;2023-04-09T08:45:45;8.70;99.90
52107;DHT22;38105;52.968;5.974;2023-04-09T08:48:12;8.70;99.90
52107;DHT22;38105;52.968;5.974;2023-04-09T08:50:38;8.80;99.90
52107;DHT22;38105;52.968;5.974;2023-04-09T08:53:05;8.80;99.90
52107;DHT22;38105;52.968;5.974;2023-04-09T08:55:33;8.80;99.90
52107;DHT22;38105;52.968;5.974;2023-04-09T08:58:05;8.80;99.90
52107;DHT22;38105;52.968;5.974;2023-04-09T09:00:35;8.90;99.90
52107;DHT22;38105;52.968;5.974;2023-04-09T09:03:09;8.90;99.90
52107;DHT22;38105;52.968;5.974;2023-04-09T09:05:41;8.90;99.90
52107;DHT22;38105;52.968;5.974;2023-04-09T09:08:23;8.90;99.90
52107;DHT22;38105;52.968;5.974;2023-04-09T09:10:48;9.00;99.90
52107;DHT22;38105;52.968;5.974;2023-04-09T09:13:25;8.90;99.90
52107;DHT22;38105;52.968;5.974;2023-04-09T09:15:52;8.90;99.90
52107;DHT22;38105;52.968;5.974;2023-04-09T09:18:42;8.80;99.90
52107;DHT22;38105;52.968;5.974;2023-04-09T09:21:14;8.80;99.90
52107;DHT22;38105;52.968;5.974;2023-04-09T09:23:41;8.80;99.90
52107;DHT22;38105;52.968;5.974;2023-04-09T09:26:20;8.80;99.90
52107;DHT22;38105;52.968;5.974;2023-04-09T09:28:47;8.80;99.90
52107;DHT22;38105;52.968;5.974;2023-04-09T09:31:14;8.80;99.90
52107;DHT22;38105;52.968;5.974;2023-04-09T09:33:40;8.90;99.90
52107;DHT22;38105;52.968;5.974;2023-04-09T09:36:06;8.90;99.90
52107;DHT22;38105;52.968;5.974;2023-04-09T09:38:53;9.00;99.90
52107;DHT22;38105;52.968;5.974;2023-04-09T09:41:19;9.00;99.90
52107;DHT22;38105;52.968;5.974;2023-04-09T09:43:45;9.00;99.90
52107;DHT22;38105;52.968;5.974;2023-04-09T09:46:11;9.10;99.90
52107;DHT22;38105;52.968;5.974;2023-04-09T09:48:39;9.00;99.90
52107;DHT22;38105;52.968;5.974;2023-04-09T09:51:14;9.00;99.90
52107;DHT22;38105;52.968;5.974;2023-04-09T09:53:43;9.00;99.90
52107;DHT22;38105;52.968;5.974;2023-04-09T09:56:21;9.10;99.90
52107;DHT22;38105;52.968;5.974;2023-04-09T09:58:55;9.20;99.90
52107;DHT22;38105;52.968;5.974;2023-04-09T10:01:25;9.30;99.90
52107;DHT22;38105;52.968;5.974;2023-04-09T10:03:52;9.40;99.90
52107;DHT22;38105;52.968;5.974;2023-04-09T10:06:19;9.50;99.90
52107;DHT22;38105;52.968;5.974;2023-04-09T10:08:47;9.50;99.90
52107;DHT22;38105;52.968;5.974;2023-04-09T10:11:14;9.70;99.90
52107;DHT22;38105;52.968;5.974;2023-04-09T10:13:45;9.90;99.90
52107;DHT22;38105;52.968;5.974;2023-04-09T10:16:13;10.20;99.90
52107;DHT22;38105;52.968;5.974;2023-04-09T10:18:40;10.30;99.90
52107;DHT22;38105;52.968;5.974;2023-04-09T10:23:55;11.20;99.90
52107;DHT22;38105;52.968;5.974;2023-04-09T10:26:24;11.80;99.90
52107;DHT22;38105;52.968;5.974;2023-04-09T10:29:07;12.10;99.90
52107;DHT22;38105;52.968;5.974;2023-04-09T10:34:26;12.20;99.90
52107;DHT22;38105;52.968;5.974;2023-04-09T10:36:55;12.30;99.90
52107;DHT22;38105;52.968;5.974;2023-04-09T10:39:30;12.40;99.90
52107;DHT22;38105;52.968;5.974;2023-04-09T10:41:58;12.50;99.90
52107;DHT22;38105;52.968;5.974;2023-04-09T10:44:26;12.60;99.90
52107;DHT22;38105;52.968;5.974;2023-04-09T10:46:55;12.40;99.90
52107;DHT22;38105;52.968;5.974;2023-04-09T10:49:24;12.50;99.90
52107;DHT22;38105;52.968;5.974;2023-04-09T10:52:05;12.70;99.90
52107;DHT22;38105;52.968;5.974;2023-04-09T10:57:12;12.80;99.90
52107;DHT22;38105;52.968;5.974;2023-04-09T10:59:41;13.40;99.90
52107;DHT22;38105;52.968;5.974;2023-04-09T11:02:09;13.80;99.90
52107;DHT22;38105;52.968;5.974;2023-04-09T11:07:26;14.10;99.90
52107;DHT22;38105;52.968;5.974;2023-04-09T11:09:54;14.20;99.90
52107;DHT22;38105;52.968;5.974;2023-04-09T11:12:19;14.20;99.90
52107;DHT22;38105;52.968;5.974;2023-04-09T11:14:45;14.30;99.90
52107;DHT22;38105;52.968;5.974;2023-04-09T11:17:11;14.30;99.90
52107;DHT22;38105;52.968;5.974;2023-04-09T11:19:37;14.60;99.90
52107;DHT22;38105;52.968;5.974;2023-04-09T11:22:04;14.50;99.90
52107;DHT22;38105;52.968;5.974;2023-04-09T11:24:45;14.50;99.90
52107;DHT22;38105;52.968;5.974;2023-04-09T11:27:15;14.50;99.90
52107;DHT22;38105;52.968;5.974;2023-04-09T11:29:44;14.60;99.90
52107;DHT22;38105;52.968;5.974;2023-04-09T11:32:11;14.70;99.90
52107;DHT22;38105;52.968;5.974;2023-04-09T11:34:37;15.00;99.90
52107;DHT22;38105;52.968;5.974;2023-04-09T11:37:03;15.20;99.90
52107;DHT22;38105;52.968;5.974;2023-04-09T11:39:35;15.10;99.90
52107;DHT22;38105;52.968;5.974;2023-04-09T11:42:01;15.20;99.90
52107;DHT22;38105;52.968;5.974;2023-04-09T11:44:27;15.10;99.90
52107;DHT22;38105;52.968;5.974;2023-04-09T11:46:53;14.60;99.90
52107;DHT22;38105;52.968;5.974;2023-04-09T11:49:19;14.80;99.90
52107;DHT22;38105;52.968;5.974;2023-04-09T11:51:45;14.90;99.90
52107;DHT22;38105;52.968;5.974;2023-04-09T11:54:11;14.70;99.90
52107;DHT22;38105;52.968;5.974;2023-04-09T11:56:37;14.50;99.90
52107;DHT22;38105;52.968;5.974;2023-04-09T11:59:02;14.30;99.90
52107;DHT22;38105;52.968;5.974;2023-04-09T12:01:32;14.20;99.90
52107;DHT22;38105;52.968;5.974;2023-04-09T12:03:59;14.20;99.90
52107;DHT22;38105;52.968;5.974;2023-04-09T12:06:25;14.40;99.90
52107;DHT22;38105;52.968;5.974;2023-04-09T12:09:00;14.40;99.90
52107;DHT22;38105;52.968;5.974;2023-04-09T12:11:30;14.20;99.90
52107;DHT22;38105;52.968;5.974;2023-04-09T12:14:00;14.30;99.90
52107;DHT22;38105;52.968;5.974;2023-04-09T12:16:29;14.30;99.90
52107;DHT22;38105;52.968;5.974;2023-04-09T12:19:06;14.30;99.90
52107;DHT22;38105;52.968;5.974;2023-04-09T12:21:52;14.50;99.90
52107;DHT22;38105;52.968;5.974;2023-04-09T12:24:23;14.60;99.90
52107;DHT22;38105;52.968;5.974;2023-04-09T12:26:50;14.60;99.90
52107;DHT22;38105;52.968;5.974;2023-04-09T12:29:18;14.50;99.90
52107;DHT22;38105;52.968;5.974;2023-04-09T12:31:44;14.40;99.90
52107;DHT22;38105;52.968;5.974;2023-04-09T12:34:10;14.30;99.90
52107;DHT22;38105;52.968;5.974;2023-04-09T12:36:38;14.30;99.90
52107;DHT22;38105;52.968;5.974;2023-04-09T12:39:06;14.60;99.90
52107;DHT22;38105;52.968;5.974;2023-04-09T12:41:32;14.90;99.90
52107;DHT22;38105;52.968;5.974;2023-04-09T12:43:57;15.10;99.90
52107;DHT22;38105;52.968;5.974;2023-04-09T12:46:23;15.40;99.90
52107;DHT22;38105;52.968;5.974;2023-04-09T12:48:48;15.40;99.90
52107;DHT22;38105;52.968;5.974;2023-04-09T12:51:14;15.40;99.90
52107;DHT22;38105;52.968;5.974;2023-04-09T12:53:40;15.40;99.90
52107;DHT22;38105;52.968;5.974;2023-04-09T12:56:06;15.50;99.90
52107;DHT22;38105;52.968;5.974;2023-04-09T12:58:32;15.20;99.90
52107;DHT22;38105;52.968;5.974;2023-04-09T13:00:58;15.00;99.90
52107;DHT22;38105;52.968;5.974;2023-04-09T13:03:24;14.70;99.90
52107;DHT22;38105;52.968;5.974;2023-04-09T13:05:50;14.90;99.90
52107;DHT22;38105;52.968;5.974;2023-04-09T13:08:16;14.90;99.90
52107;DHT22;38105;52.968;5.974;2023-04-09T13:10:42;15.20;99.90
52107;DHT22;38105;52.968;5.974;2023-04-09T13:13:08;15.40;99.90
52107;DHT22;38105;52.968;5.974;2023-04-09T13:15:40;15.60;99.90
52107;DHT22;38105;52.968;5.974;2023-04-09T13:18:10;15.40;99.90
52107;DHT22;38105;52.968;5.974;2023-04-09T13:20:35;15.70;99.90
52107;DHT22;38105;52.968;5.974;2023-04-09T13:23:01;15.80;99.90
52107;DHT22;38105;52.968;5.974;2023-04-09T13:25:27;15.40;99.90
52107;DHT22;38105;52.968;5.974;2023-04-09T13:27:53;15.10;99.90
52107;DHT22;38105;52.968;5.974;2023-04-09T13:30:21;14.70;99.90
52107;DHT22;38105;52.968;5.974;2023-04-09T13:32:47;14.70;99.90
52107;DHT22;38105;52.968;5.974;2023-04-09T13:35:12;14.50;99.90
52107;DHT22;38105;52.968;5.974;2023-04-09T13:37:38;14.40;99.90
52107;DHT22;38105;52.968;5.974;2023-04-09T13:40:04;14.40;99.90
52107;DHT22;38105;52.968;5.974;2023-04-09T13:42:30;14.50;99.90
52107;DHT22;38105;52.968;5.974;2023-04-09T13:44:56;14.60;99.90
52107;DHT22;38105;52.968;5.974;2023-04-09T13:47:23;14.60;99.90
52107;DHT22;38105;52.968;5.974;2023-04-09T13:49:48;14.50;99.90
52107;DHT22;38105;52.968;5.974;2023-04-09T13:52:16;14.40;99.90
52107;DHT22;38105;52.968;5.974;2023-04-09T13:54:42;14.40;99.90
52107;DHT22;38105;52.968;5.974;2023-04-09T13:57:08;14.40;99.90
52107;DHT22;38105;52.968;5.974;2023-04-09T13:59:34;14.50;99.90
52107;DHT22;38105;52.968;5.974;2023-04-09T14:02:00;14.60;99.90
52107;DHT22;38105;52.968;5.974;2023-04-09T14:04:26;14.80;99.90
52107;DHT22;38105;52.968;5.974;2023-04-09T14:06:53;15.00;99.90
52107;DHT22;38105;52.968;5.974;2023-04-09T14:09:18;15.10;99.90
52107;DHT22;38105;52.968;5.974;2023-04-09T14:11:44;15.00;99.90
52107;DHT22;38105;52.968;5.974;2023-04-09T14:14:10;14.80;99.90
52107;DHT22;38105;52.968;5.974;2023-04-09T14:16:35;14.90;99.90
52107;DHT22;38105;52.968;5.974;2023-04-09T14:19:01;14.80;99.90
52107;DHT22;38105;52.968;5.974;2023-04-09T14:21:27;14.80;99.90
52107;DHT22;38105;52.968;5.974;2023-04-09T14:23:53;14.70;99.90
52107;DHT22;38105;52.968;5.974;2023-04-09T14:26:19;14.60;99.90
52107;DHT22;38105;52.968;5.974;2023-04-09T14:28:44;14.60;99.90
52107;DHT22;38105;52.968;5.974;2023-04-09T14:31:12;14.60;99.90
52107;DHT22;38105;52.968;5.974;2023-04-09T14:33:39;14.50;99.90
52107;DHT22;38105;52.968;5.974;2023-04-09T14:36:05;14.40;99.90
52107;DHT22;38105;52.968;5.974;2023-04-09T14:38:31;14.40;99.90
52107;DHT22;38105;52.968;5.974;2023-04-09T14:40:57;14.50;99.90
52107;DHT22;38105;52.968;5.974;2023-04-09T14:43:23;14.60;99.90
52107;DHT22;38105;52.968;5.974;2023-04-09T14:45:49;14.60;99.90
52107;DHT22;38105;52.968;5.974;2023-04-09T14:48:15;14.70;99.90
52107;DHT22;38105;52.968;5.974;2023-04-09T14:50:40;14.80;99.90
52107;DHT22;38105;52.968;5.974;2023-04-09T14:53:07;14.80;99.90
52107;DHT22;38105;52.968;5.974;2023-04-09T14:55:33;14.70;99.90
52107;DHT22;38105;52.968;5.974;2023-04-09T14:57:58;14.60;99.90
52107;DHT22;38105;52.968;5.974;2023-04-09T15:00:28;14.30;99.90
52107;DHT22;38105;52.968;5.974;2023-04-09T15:02:53;14.10;99.90
52107;DHT22;38105;52.968;5.974;2023-04-09T15:05:19;14.00;99.90
52107;DHT22;38105;52.968;5.974;2023-04-09T15:07:45;14.00;99.90
52107;DHT22;38105;52.968;5.974;2023-04-09T15:10:10;14.10;99.90
52107;DHT22;38105;52.968;5.974;2023-04-09T15:12:36;14.10;99.90
52107;DHT22;38105;52.968;5.974;2023-04-09T15:15:06;14.10;99.90
52107;DHT22;38105;52.968;5.974;2023-04-09T15:17:32;14.00;99.90
52107;DHT22;38105;52.968;5.974;2023-04-09T15:19:58;14.10;99.90
52107;DHT22;38105;52.968;5.974;2023-04-09T15:22:24;14.10;99.90
52107;DHT22;38105;52.968;5.974;2023-04-09T15:24:50;14.20;99.90
52107;DHT22;38105;52.968;5.974;2023-04-09T15:27:16;14.30;99.90
52107;DHT22;38105;52.968;5.974;2023-04-09T15:29:42;14.30;99.90
52107;DHT22;38105;52.968;5.974;2023-04-09T15:32:08;14.30;99.90
52107;DHT22;38105;52.968;5.974;2023-04-09T15:34:33;14.20;99.90
52107;DHT22;38105;52.968;5.974;2023-04-09T15:36:59;14.10;99.90
52107;DHT22;38105;52.968;5.974;2023-04-09T15:39:25;14.20;99.90
52107;DHT22;38105;52.968;5.974;2023-04-09T15:41:53;14.30;99.90
52107;DHT22;38105;52.968;5.974;2023-04-09T15:44:20;14.30;99.90
52107;DHT22;38105;52.968;5.974;2023-04-09T15:46:46;14.40;99.90
52107;DHT22;38105;52.968;5.974;2023-04-09T15:49:12;14.50;99.90
52107;DHT22;38105;52.968;5.974;2023-04-09T15:51:37;14.50;99.90
52107;DHT22;38105;52.968;5.974;2023-04-09T15:54:03;14.50;99.90
52107;DHT22;38105;52.968;5.974;2023-04-09T15:56:29;14.50;99.90
52107;DHT22;38105;52.968;5.974;2023-04-09T15:58:54;14.50;99.90
52107;DHT22;38105;52.968;5.974;2023-04-09T16:01:20;14.50;99.90